sensor_id;sensor_type;location;lat;lon;timestamp;P1;durP1;ratioP1;P2;durP2;ratioP2
11439;SDS011;5776;51.814;4.510;2023-05-13T00:00:23;9.32;;;7.60;;
11439;SDS011;5776;51.814;4.510;2023-05-13T00:02:49;8.37;;;6.00;;
11439;SDS011;5776;51.814;4.510;2023-05-13T00:05:15;9.95;;;7.32;;
11439;SDS011;5776;51.814;4.510;2023-05-13T00:07:41;12.43;;;8.63;;
11439;SDS011;5776;51.814;4.510;2023-05-13T00:10:07;10.23;;;7.15;;
11439;SDS011;5776;51.814;4.510;2023-05-13T00:12:33;11.95;;;8.10;;
11439;SDS011;5776;51.814;4.510;2023-05-13T00:14:59;10.98;;;6.88;;
11439;SDS011;5776;51.814;4.510;2023-05-13T00:17:25;9.65;;;6.78;;
11439;SDS011;5776;51.814;4.510;2023-05-13T00:19:51;12.45;;;7.72;;
11439;SDS011;5776;51.814;4.510;2023-05-13T00:22:17;9.32;;;5.72;;
11439;SDS011;5776;51.814;4.510;2023-05-13T00:24:43;11.57;;;7.00;;
11439;SDS011;5776;51.814;4.510;2023-05-13T00:27:09;9.75;;;7.45;;
11439;SDS011;5776;51.814;4.510;2023-05-13T00:29:35;7.47;;;6.13;;
11439;SDS011;5776;51.814;4.510;2023-05-13T00:32:02;10.97;;;6.13;;
11439;SDS011;5776;51.814;4.510;2023-05-13T00:34:28;8.73;;;5.53;;
11439;SDS011;5776;51.814;4.510;2023-05-13T00:36:54;6.73;;;5.27;;
11439;SDS011;5776;51.814;4.510;2023-05-13T00:39:20;10.35;;;6.03;;
11439;SDS011;5776;51.814;4.510;2023-05-13T00:41:45;7.50;;;5.40;;
11439;SDS011;5776;51.814;4.510;2023-05-13T00:44:11;6.85;;;4.95;;
11439;SDS011;5776;51.814;4.510;2023-05-13T00:46:37;6.90;;;5.15;;
11439;SDS011;5776;51.814;4.510;2023-05-13T00:49:03;6.13;;;4.55;;
11439;SDS011;5776;51.814;4.510;2023-05-13T00:51:30;6.13;;;4.57;;
11439;SDS011;5776;51.814;4.510;2023-05-13T00:54:00;4.28;;;3.83;;
11439;SDS011;5776;51.814;4.510;2023-05-13T00:56:26;10.57;;;4.70;;
11439;SDS011;5776;51.814;4.510;2023-05-13T00:58:52;8.60;;;4.93;;
11439;SDS011;5776;51.814;4.510;2023-05-13T01:06:43;7.28;;;3.92;;
11439;SDS011;5776;51.814;4.510;2023-05-13T01:11:48;8.30;;;4.47;;
11439;SDS011;5776;51.814;4.510;2023-05-13T01:14:24;9.90;;;4.30;;
11439;SDS011;5776;51.814;4.510;2023-05-13T01:16:58;5.50;;;4.53;;
11439;SDS011;5776;51.814;4.510;2023-05-13T01:21:58;6.40;;;3.95;;
11439;SDS011;5776;51.814;4.510;2023-05-13T01:24:24;5.72;;;3.90;;
11439;SDS011;5776;51.814;4.510;2023-05-13T01:26:50;9.48;;;4.38;;
11439;SDS011;5776;51.814;4.510;2023-05-13T01:29:16;6.70;;;3.80;;
11439;SDS011;5776;51.814;4.510;2023-05-13T01:31:42;4.18;;;3.08;;
11439;SDS011;5776;51.814;4.510;2023-05-13T01:34:11;4.30;;;2.83;;
11439;SDS011;5776;51.814;4.510;2023-05-13T01:36:39;4.97;;;3.45;;
11439;SDS011;5776;51.814;4.510;2023-05-13T01:39:05;5.73;;;3.93;;
11439;SDS011;5776;51.814;4.510;2023-05-13T01:41:32;5.95;;;3.20;;
11439;SDS011;5776;51.814;4.510;2023-05-13T01:43:59;5.47;;;2.53;;
11439;SDS011;5776;51.814;4.510;2023-05-13T01:46:25;6.70;;;2.92;;
11439;SDS011;5776;51.814;4.510;2023-05-13T01:48:51;6.93;;;3.10;;
11439;SDS011;5776;51.814;4.510;2023-05-13T01:51:17;3.25;;;2.60;;
11439;SDS011;5776;51.814;4.510;2023-05-13T01:53:43;11.00;;;3.28;;
11439;SDS011;5776;51.814;4.510;2023-05-13T01:56:09;6.03;;;2.58;;
11439;SDS011;5776;51.814;4.510;2023-05-13T01:58:35;6.28;;;3.10;;
11439;SDS011;5776;51.814;4.510;2023-05-13T02:01:01;4.90;;;2.50;;
11439;SDS011;5776;51.814;4.510;2023-05-13T02:03:28;4.90;;;2.93;;
11439;SDS011;5776;51.814;4.510;2023-05-13T02:05:54;7.00;;;2.93;;
11439;SDS011;5776;51.814;4.510;2023-05-13T02:08:20;4.17;;;2.60;;
11439;SDS011;5776;51.814;4.510;2023-05-13T02:10:57;6.28;;;3.65;;
11439;SDS011;5776;51.814;4.510;2023-05-13T02:13:24;5.20;;;3.07;;
11439;SDS011;5776;51.814;4.510;2023-05-13T02:15:51;4.13;;;2.90;;
11439;SDS011;5776;51.814;4.510;2023-05-13T02:18:17;3.67;;;2.63;;
11439;SDS011;5776;51.814;4.510;2023-05-13T02:20:44;3.17;;;2.63;;
11439;SDS011;5776;51.814;4.510;2023-05-13T02:23:10;3.83;;;2.60;;
11439;SDS011;5776;51.814;4.510;2023-05-13T02:25:37;5.60;;;3.03;;
11439;SDS011;5776;51.814;4.510;2023-05-13T02:28:03;6.30;;;3.20;;
11439;SDS011;5776;51.814;4.510;2023-05-13T02:30:29;6.85;;;3.30;;
11439;SDS011;5776;51.814;4.510;2023-05-13T02:32:56;4.57;;;3.60;;
11439;SDS011;5776;51.814;4.510;2023-05-13T02:35:22;9.10;;;3.53;;
11439;SDS011;5776;51.814;4.510;2023-05-13T02:37:50;5.93;;;3.50;;
11439;SDS011;5776;51.814;4.510;2023-05-13T02:40:16;4.25;;;3.47;;
11439;SDS011;5776;51.814;4.510;2023-05-13T02:42:42;6.13;;;3.67;;
11439;SDS011;5776;51.814;4.510;2023-05-13T02:45:08;4.53;;;3.20;;
11439;SDS011;5776;51.814;4.510;2023-05-13T02:47:35;4.47;;;3.15;;
11439;SDS011;5776;51.814;4.510;2023-05-13T02:50:02;6.40;;;3.50;;
11439;SDS011;5776;51.814;4.510;2023-05-13T02:52:30;7.93;;;3.80;;
11439;SDS011;5776;51.814;4.510;2023-05-13T02:54:56;6.37;;;3.80;;
11439;SDS011;5776;51.814;4.510;2023-05-13T02:57:22;7.10;;;3.50;;
11439;SDS011;5776;51.814;4.510;2023-05-13T02:59:48;4.15;;;2.88;;
11439;SDS011;5776;51.814;4.510;2023-05-13T03:02:14;8.23;;;3.90;;
11439;SDS011;5776;51.814;4.510;2023-05-13T03:04:40;7.50;;;3.77;;
11439;SDS011;5776;51.814;4.510;2023-05-13T03:07:06;4.53;;;3.43;;
11439;SDS011;5776;51.814;4.510;2023-05-13T03:09:32;7.10;;;4.00;;
11439;SDS011;5776;51.814;4.510;2023-05-13T03:11:59;6.57;;;4.50;;
11439;SDS011;5776;51.814;4.510;2023-05-13T03:14:28;5.13;;;3.90;;
11439;SDS011;5776;51.814;4.510;2023-05-13T03:16:54;11.17;;;4.27;;
11439;SDS011;5776;51.814;4.510;2023-05-13T03:19:20;6.80;;;4.40;;
11439;SDS011;5776;51.814;4.510;2023-05-13T03:21:46;5.90;;;4.93;;
11439;SDS011;5776;51.814;4.510;2023-05-13T03:24:12;9.70;;;5.03;;
11439;SDS011;5776;51.814;4.510;2023-05-13T03:26:38;7.37;;;5.03;;
11439;SDS011;5776;51.814;4.510;2023-05-13T03:29:04;7.30;;;4.80;;
11439;SDS011;5776;51.814;4.510;2023-05-13T03:31:30;6.43;;;5.13;;
11439;SDS011;5776;51.814;4.510;2023-05-13T03:33:56;11.88;;;5.60;;
11439;SDS011;5776;51.814;4.510;2023-05-13T03:36:22;7.07;;;5.23;;
11439;SDS011;5776;51.814;4.510;2023-05-13T03:38:48;8.93;;;5.47;;
11439;SDS011;5776;51.814;4.510;2023-05-13T03:41:14;9.63;;;5.10;;
11439;SDS011;5776;51.814;4.510;2023-05-13T03:43:42;6.83;;;5.17;;
11439;SDS011;5776;51.814;4.510;2023-05-13T03:46:09;8.30;;;5.47;;
11439;SDS011;5776;51.814;4.510;2023-05-13T03:48:36;6.67;;;4.87;;
11439;SDS011;5776;51.814;4.510;2023-05-13T03:51:02;8.40;;;5.22;;
11439;SDS011;5776;51.814;4.510;2023-05-13T03:53:28;7.20;;;4.93;;
11439;SDS011;5776;51.814;4.510;2023-05-13T03:55:54;6.37;;;4.53;;
11439;SDS011;5776;51.814;4.510;2023-05-13T03:58:20;9.37;;;5.17;;
11439;SDS011;5776;51.814;4.510;2023-05-13T04:00:47;12.17;;;5.10;;
11439;SDS011;5776;51.814;4.510;2023-05-13T04:03:14;6.37;;;4.77;;
11439;SDS011;5776;51.814;4.510;2023-05-13T04:05:42;7.23;;;4.00;;
11439;SDS011;5776;51.814;4.510;2023-05-13T04:08:08;8.55;;;5.00;;
11439;SDS011;5776;51.814;4.510;2023-05-13T04:10:35;7.57;;;4.72;;
11439;SDS011;5776;51.814;4.510;2023-05-13T04:13:01;10.17;;;5.77;;
11439;SDS011;5776;51.814;4.510;2023-05-13T04:15:27;6.75;;;3.65;;
11439;SDS011;5776;51.814;4.510;2023-05-13T04:17:53;6.10;;;4.33;;
11439;SDS011;5776;51.814;4.510;2023-05-13T04:20:19;6.70;;;4.07;;
11439;SDS011;5776;51.814;4.510;2023-05-13T04:22:45;5.57;;;3.97;;
11439;SDS011;5776;51.814;4.510;2023-05-13T04:25:11;5.33;;;4.17;;
11439;SDS011;5776;51.814;4.510;2023-05-13T04:27:37;9.67;;;4.77;;
11439;SDS011;5776;51.814;4.510;2023-05-13T04:30:03;5.60;;;4.10;;
11439;SDS011;5776;51.814;4.510;2023-05-13T04:32:28;5.30;;;4.17;;
11439;SDS011;5776;51.814;4.510;2023-05-13T04:34:54;6.33;;;4.80;;
11439;SDS011;5776;51.814;4.510;2023-05-13T04:37:20;7.50;;;5.40;;
11439;SDS011;5776;51.814;4.510;2023-05-13T04:39:46;7.03;;;5.23;;
11439;SDS011;5776;51.814;4.510;2023-05-13T04:42:13;8.43;;;4.83;;
11439;SDS011;5776;51.814;4.510;2023-05-13T04:44:39;10.33;;;5.77;;
11439;SDS011;5776;51.814;4.510;2023-05-13T04:47:05;9.37;;;5.73;;
11439;SDS011;5776;51.814;4.510;2023-05-13T04:49:31;9.87;;;5.57;;
11439;SDS011;5776;51.814;4.510;2023-05-13T04:51:57;12.30;;;6.25;;
11439;SDS011;5776;51.814;4.510;2023-05-13T04:54:25;8.03;;;5.67;;
11439;SDS011;5776;51.814;4.510;2023-05-13T04:56:51;9.35;;;5.93;;
11439;SDS011;5776;51.814;4.510;2023-05-13T04:59:17;8.30;;;5.70;;
11439;SDS011;5776;51.814;4.510;2023-05-13T05:01:43;8.50;;;6.33;;
11439;SDS011;5776;51.814;4.510;2023-05-13T05:04:09;15.40;;;5.50;;
11439;SDS011;5776;51.814;4.510;2023-05-13T05:06:35;12.83;;;6.27;;
11439;SDS011;5776;51.814;4.510;2023-05-13T05:09:01;9.13;;;6.30;;
11439;SDS011;5776;51.814;4.510;2023-05-13T05:11:28;8.60;;;6.90;;
11439;SDS011;5776;51.814;4.510;2023-05-13T05:13:54;9.70;;;6.40;;
11439;SDS011;5776;51.814;4.510;2023-05-13T05:16:20;12.70;;;6.67;;
11439;SDS011;5776;51.814;4.510;2023-05-13T05:18:46;9.00;;;6.30;;
11439;SDS011;5776;51.814;4.510;2023-05-13T05:21:12;10.87;;;7.30;;
11439;SDS011;5776;51.814;4.510;2023-05-13T05:23:38;9.03;;;6.53;;
11439;SDS011;5776;51.814;4.510;2023-05-13T05:26:04;9.63;;;6.03;;
11439;SDS011;5776;51.814;4.510;2023-05-13T05:28:30;11.03;;;6.20;;
11439;SDS011;5776;51.814;4.510;2023-05-13T05:30:56;12.87;;;6.27;;
11439;SDS011;5776;51.814;4.510;2023-05-13T05:33:22;11.50;;;6.70;;
11439;SDS011;5776;51.814;4.510;2023-05-13T05:35:48;11.40;;;6.63;;
11439;SDS011;5776;51.814;4.510;2023-05-13T05:38:14;9.50;;;6.80;;
11439;SDS011;5776;51.814;4.510;2023-05-13T05:40:41;10.70;;;5.77;;
11439;SDS011;5776;51.814;4.510;2023-05-13T05:43:08;9.60;;;6.00;;
11439;SDS011;5776;51.814;4.510;2023-05-13T05:45:36;10.70;;;6.40;;
11439;SDS011;5776;51.814;4.510;2023-05-13T05:48:03;6.78;;;4.88;;
11439;SDS011;5776;51.814;4.510;2023-05-13T05:50:30;10.03;;;5.40;;
11439;SDS011;5776;51.814;4.510;2023-05-13T05:52:57;9.53;;;6.10;;
11439;SDS011;5776;51.814;4.510;2023-05-13T05:55:26;6.60;;;4.77;;
11439;SDS011;5776;51.814;4.510;2023-05-13T05:57:53;9.10;;;6.73;;
11439;SDS011;5776;51.814;4.510;2023-05-13T06:00:20;8.70;;;4.70;;
11439;SDS011;5776;51.814;4.510;2023-05-13T06:02:46;10.20;;;6.10;;
11439;SDS011;5776;51.814;4.510;2023-05-13T06:05:13;14.97;;;7.07;;
11439;SDS011;5776;51.814;4.510;2023-05-13T06:07:39;10.67;;;6.40;;
11439;SDS011;5776;51.814;4.510;2023-05-13T06:10:05;10.23;;;5.30;;
11439;SDS011;5776;51.814;4.510;2023-05-13T06:12:32;12.87;;;6.90;;
11439;SDS011;5776;51.814;4.510;2023-05-13T06:14:58;5.57;;;4.37;;
11439;SDS011;5776;51.814;4.510;2023-05-13T06:17:25;10.50;;;5.40;;
11439;SDS011;5776;51.814;4.510;2023-05-13T06:19:51;8.07;;;6.10;;
11439;SDS011;5776;51.814;4.510;2023-05-13T06:22:17;9.77;;;7.23;;
11439;SDS011;5776;51.814;4.510;2023-05-13T06:24:43;8.73;;;5.67;;
11439;SDS011;5776;51.814;4.510;2023-05-13T06:27:09;8.10;;;5.60;;
11439;SDS011;5776;51.814;4.510;2023-05-13T06:29:36;8.83;;;4.97;;
11439;SDS011;5776;51.814;4.510;2023-05-13T06:32:03;8.20;;;5.07;;
11439;SDS011;5776;51.814;4.510;2023-05-13T06:34:29;11.40;;;6.40;;
11439;SDS011;5776;51.814;4.510;2023-05-13T06:36:55;8.10;;;5.17;;
11439;SDS011;5776;51.814;4.510;2023-05-13T06:39:21;9.43;;;5.27;;
11439;SDS011;5776;51.814;4.510;2023-05-13T06:41:47;8.27;;;5.17;;
11439;SDS011;5776;51.814;4.510;2023-05-13T06:44:13;9.63;;;5.60;;
11439;SDS011;5776;51.814;4.510;2023-05-13T06:46:39;9.77;;;6.43;;
11439;SDS011;5776;51.814;4.510;2023-05-13T06:49:05;9.27;;;4.90;;
11439;SDS011;5776;51.814;4.510;2023-05-13T06:51:31;6.87;;;4.60;;
11439;SDS011;5776;51.814;4.510;2023-05-13T06:53:59;6.50;;;4.63;;
11439;SDS011;5776;51.814;4.510;2023-05-13T06:56:25;9.07;;;5.17;;
11439;SDS011;5776;51.814;4.510;2023-05-13T06:58:51;9.55;;;4.97;;
11439;SDS011;5776;51.814;4.510;2023-05-13T07:01:17;9.93;;;6.40;;
11439;SDS011;5776;51.814;4.510;2023-05-13T07:03:44;7.77;;;6.17;;
11439;SDS011;5776;51.814;4.510;2023-05-13T07:06:10;9.20;;;6.23;;
11439;SDS011;5776;51.814;4.510;2023-05-13T07:08:36;6.50;;;5.40;;
11439;SDS011;5776;51.814;4.510;2023-05-13T07:11:03;14.37;;;6.67;;
11439;SDS011;5776;51.814;4.510;2023-05-13T07:13:29;12.95;;;6.93;;
11439;SDS011;5776;51.814;4.510;2023-05-13T07:15:58;9.10;;;6.57;;
11439;SDS011;5776;51.814;4.510;2023-05-13T07:18:23;12.13;;;7.20;;
11439;SDS011;5776;51.814;4.510;2023-05-13T07:20:49;9.33;;;6.87;;
11439;SDS011;5776;51.814;4.510;2023-05-13T07:23:16;14.73;;;7.27;;
11439;SDS011;5776;51.814;4.510;2023-05-13T07:25:41;8.17;;;6.33;;
11439;SDS011;5776;51.814;4.510;2023-05-13T07:28:08;8.23;;;4.87;;
11439;SDS011;5776;51.814;4.510;2023-05-13T07:30:34;8.73;;;6.80;;
11439;SDS011;5776;51.814;4.510;2023-05-13T07:33:00;10.43;;;6.65;;
11439;SDS011;5776;51.814;4.510;2023-05-13T07:35:26;10.57;;;6.13;;
11439;SDS011;5776;51.814;4.510;2023-05-13T07:37:51;14.77;;;7.50;;
11439;SDS011;5776;51.814;4.510;2023-05-13T07:40:18;7.60;;;4.17;;
11439;SDS011;5776;51.814;4.510;2023-05-13T07:42:45;7.27;;;4.67;;
11439;SDS011;5776;51.814;4.510;2023-05-13T07:45:11;7.67;;;5.40;;
11439;SDS011;5776;51.814;4.510;2023-05-13T07:47:37;10.93;;;6.00;;
11439;SDS011;5776;51.814;4.510;2023-05-13T07:50:03;8.37;;;5.30;;
11439;SDS011;5776;51.814;4.510;2023-05-13T07:52:30;12.43;;;6.40;;
11439;SDS011;5776;51.814;4.510;2023-05-13T07:54:56;13.50;;;6.63;;
11439;SDS011;5776;51.814;4.510;2023-05-13T07:57:22;12.95;;;6.60;;
11439;SDS011;5776;51.814;4.510;2023-05-13T07:59:48;10.20;;;6.13;;
11439;SDS011;5776;51.814;4.510;2023-05-13T08:02:14;9.03;;;5.37;;
11439;SDS011;5776;51.814;4.510;2023-05-13T08:04:40;8.20;;;5.53;;
11439;SDS011;5776;51.814;4.510;2023-05-13T08:07:06;10.70;;;5.78;;
11439;SDS011;5776;51.814;4.510;2023-05-13T08:09:34;8.75;;;5.03;;
11439;SDS011;5776;51.814;4.510;2023-05-13T08:12:00;8.40;;;4.97;;
11439;SDS011;5776;51.814;4.510;2023-05-13T08:14:26;7.55;;;4.68;;
11439;SDS011;5776;51.814;4.510;2023-05-13T08:16:53;6.47;;;4.80;;
11439;SDS011;5776;51.814;4.510;2023-05-13T08:19:19;9.33;;;5.07;;
11439;SDS011;5776;51.814;4.510;2023-05-13T08:21:45;9.48;;;4.85;;
11439;SDS011;5776;51.814;4.510;2023-05-13T08:24:11;7.27;;;4.80;;
11439;SDS011;5776;51.814;4.510;2023-05-13T08:26:37;7.85;;;4.32;;
11439;SDS011;5776;51.814;4.510;2023-05-13T08:29:03;6.77;;;3.33;;
11439;SDS011;5776;51.814;4.510;2023-05-13T08:31:29;5.20;;;4.20;;
11439;SDS011;5776;51.814;4.510;2023-05-13T08:33:56;6.88;;;3.92;;
11439;SDS011;5776;51.814;4.510;2023-05-13T08:36:22;7.97;;;4.13;;
11439;SDS011;5776;51.814;4.510;2023-05-13T08:38:50;6.13;;;3.70;;
11439;SDS011;5776;51.814;4.510;2023-05-13T08:41:16;9.90;;;4.10;;
11439;SDS011;5776;51.814;4.510;2023-05-13T08:43:42;10.77;;;4.37;;
11439;SDS011;5776;51.814;4.510;2023-05-13T08:46:11;6.87;;;4.10;;
11439;SDS011;5776;51.814;4.510;2023-05-13T08:48:38;7.07;;;4.28;;
11439;SDS011;5776;51.814;4.510;2023-05-13T08:51:05;6.07;;;3.00;;
11439;SDS011;5776;51.814;4.510;2023-05-13T08:53:33;4.78;;;3.67;;
11439;SDS011;5776;51.814;4.510;2023-05-13T08:55:59;5.38;;;3.50;;
11439;SDS011;5776;51.814;4.510;2023-05-13T08:58:26;6.90;;;3.50;;
11439;SDS011;5776;51.814;4.510;2023-05-13T09:00:52;5.13;;;3.45;;
11439;SDS011;5776;51.814;4.510;2023-05-13T09:03:19;5.88;;;3.78;;
11439;SDS011;5776;51.814;4.510;2023-05-13T09:05:46;7.03;;;3.75;;
11439;SDS011;5776;51.814;4.510;2023-05-13T09:08:12;5.07;;;3.60;;
11439;SDS011;5776;51.814;4.510;2023-05-13T09:10:38;7.10;;;3.38;;
11439;SDS011;5776;51.814;4.510;2023-05-13T09:13:04;3.92;;;2.85;;
11439;SDS011;5776;51.814;4.510;2023-05-13T09:15:31;7.28;;;3.78;;
11439;SDS011;5776;51.814;4.510;2023-05-13T09:17:57;10.45;;;3.28;;
11439;SDS011;5776;51.814;4.510;2023-05-13T09:20:24;6.35;;;3.83;;
11439;SDS011;5776;51.814;4.510;2023-05-13T09:22:58;8.13;;;3.60;;
11439;SDS011;5776;51.814;4.510;2023-05-13T09:25:31;7.25;;;4.13;;
11439;SDS011;5776;51.814;4.510;2023-05-13T09:27:59;6.75;;;4.40;;
11439;SDS011;5776;51.814;4.510;2023-05-13T09:30:31;10.35;;;4.47;;
11439;SDS011;5776;51.814;4.510;2023-05-13T09:33:09;4.82;;;3.72;;
11439;SDS011;5776;51.814;4.510;2023-05-13T09:35:43;6.60;;;4.35;;
11439;SDS011;5776;51.814;4.510;2023-05-13T09:40:57;5.28;;;3.50;;
11439;SDS011;5776;51.814;4.510;2023-05-13T09:43:25;10.13;;;4.53;;
11439;SDS011;5776;51.814;4.510;2023-05-13T09:45:53;7.07;;;4.18;;
11439;SDS011;5776;51.814;4.510;2023-05-13T09:48:26;6.50;;;4.43;;
11439;SDS011;5776;51.814;4.510;2023-05-13T09:50:53;9.82;;;4.25;;
11439;SDS011;5776;51.814;4.510;2023-05-13T09:53:20;10.07;;;3.80;;
11439;SDS011;5776;51.814;4.510;2023-05-13T09:55:47;6.35;;;4.43;;
11439;SDS011;5776;51.814;4.510;2023-05-13T09:58:15;7.95;;;3.70;;
11439;SDS011;5776;51.814;4.510;2023-05-13T10:00:43;6.88;;;4.22;;
11439;SDS011;5776;51.814;4.510;2023-05-13T10:03:09;6.15;;;4.15;;
11439;SDS011;5776;51.814;4.510;2023-05-13T10:05:38;20.90;;;4.43;;
11439;SDS011;5776;51.814;4.510;2023-05-13T10:08:12;8.13;;;3.60;;
11439;SDS011;5776;51.814;4.510;2023-05-13T10:10:44;4.82;;;3.15;;
11439;SDS011;5776;51.814;4.510;2023-05-13T10:13:22;6.70;;;3.05;;
11439;SDS011;5776;51.814;4.510;2023-05-13T10:15:50;5.32;;;3.22;;
11439;SDS011;5776;51.814;4.510;2023-05-13T10:18:18;9.63;;;3.85;;
11439;SDS011;5776;51.814;4.510;2023-05-13T10:20:51;8.30;;;3.70;;
11439;SDS011;5776;51.814;4.510;2023-05-13T10:23:20;5.78;;;3.58;;
11439;SDS011;5776;51.814;4.510;2023-05-13T10:25:49;5.65;;;3.33;;
11439;SDS011;5776;51.814;4.510;2023-05-13T10:28:16;4.85;;;3.58;;
11439;SDS011;5776;51.814;4.510;2023-05-13T10:30:43;6.72;;;3.47;;
11439;SDS011;5776;51.814;4.510;2023-05-13T10:33:09;7.05;;;2.50;;
11439;SDS011;5776;51.814;4.510;2023-05-13T10:35:35;4.47;;;3.28;;
11439;SDS011;5776;51.814;4.510;2023-05-13T10:43:22;9.50;;;2.53;;
11439;SDS011;5776;51.814;4.510;2023-05-13T10:45:58;7.22;;;2.83;;
11439;SDS011;5776;51.814;4.510;2023-05-13T10:48:37;3.22;;;2.50;;
11439;SDS011;5776;51.814;4.510;2023-05-13T10:51:08;6.55;;;3.40;;
11439;SDS011;5776;51.814;4.510;2023-05-13T10:53:47;9.70;;;3.90;;
11439;SDS011;5776;51.814;4.510;2023-05-13T10:56:15;8.02;;;4.57;;
11439;SDS011;5776;51.814;4.510;2023-05-13T10:58:55;8.52;;;3.20;;
11439;SDS011;5776;51.814;4.510;2023-05-13T11:03:55;4.80;;;2.67;;
11439;SDS011;5776;51.814;4.510;2023-05-13T11:06:26;4.40;;;3.38;;
11439;SDS011;5776;51.814;4.510;2023-05-13T11:09:08;6.38;;;2.90;;
11439;SDS011;5776;51.814;4.510;2023-05-13T11:11:37;6.82;;;2.65;;
11439;SDS011;5776;51.814;4.510;2023-05-13T11:19:31;5.85;;;3.08;;
11439;SDS011;5776;51.814;4.510;2023-05-13T11:22:18;5.55;;;2.83;;
11439;SDS011;5776;51.814;4.510;2023-05-13T11:25:05;6.32;;;3.20;;
11439;SDS011;5776;51.814;4.510;2023-05-13T11:27:38;6.40;;;3.33;;
11439;SDS011;5776;51.814;4.510;2023-05-13T11:30:06;4.93;;;3.05;;
11439;SDS011;5776;51.814;4.510;2023-05-13T11:32:46;6.25;;;3.13;;
11439;SDS011;5776;51.814;4.510;2023-05-13T11:35:21;5.10;;;3.92;;
11439;SDS011;5776;51.814;4.510;2023-05-13T11:37:48;4.25;;;3.15;;
11439;SDS011;5776;51.814;4.510;2023-05-13T11:40:20;5.50;;;3.63;;
11439;SDS011;5776;51.814;4.510;2023-05-13T11:42:50;6.88;;;3.05;;
11439;SDS011;5776;51.814;4.510;2023-05-13T11:45:17;7.50;;;3.40;;
11439;SDS011;5776;51.814;4.510;2023-05-13T11:47:45;4.65;;;2.72;;
11439;SDS011;5776;51.814;4.510;2023-05-13T11:50:27;4.10;;;2.33;;
11439;SDS011;5776;51.814;4.510;2023-05-13T11:52:55;5.75;;;2.97;;
11439;SDS011;5776;51.814;4.510;2023-05-13T11:55:23;5.13;;;3.08;;
11439;SDS011;5776;51.814;4.510;2023-05-13T11:57:50;6.05;;;2.95;;
11439;SDS011;5776;51.814;4.510;2023-05-13T12:00:16;5.30;;;3.10;;
11439;SDS011;5776;51.814;4.510;2023-05-13T12:02:42;4.10;;;2.97;;
11439;SDS011;5776;51.814;4.510;2023-05-13T12:05:10;12.85;;;3.00;;
11439;SDS011;5776;51.814;4.510;2023-05-13T12:07:37;3.85;;;2.20;;
11439;SDS011;5776;51.814;4.510;2023-05-13T12:10:04;5.43;;;3.03;;
11439;SDS011;5776;51.814;4.510;2023-05-13T12:12:32;3.88;;;2.55;;
11439;SDS011;5776;51.814;4.510;2023-05-13T12:15:01;5.50;;;3.25;;
11439;SDS011;5776;51.814;4.510;2023-05-13T12:17:29;4.18;;;2.92;;
11439;SDS011;5776;51.814;4.510;2023-05-13T12:27:57;4.30;;;2.78;;
11439;SDS011;5776;51.814;4.510;2023-05-13T12:30:24;6.75;;;2.80;;
11439;SDS011;5776;51.814;4.510;2023-05-13T12:32:50;4.28;;;2.53;;
11439;SDS011;5776;51.814;4.510;2023-05-13T12:35:16;4.07;;;2.85;;
11439;SDS011;5776;51.814;4.510;2023-05-13T12:37:42;3.80;;;2.80;;
11439;SDS011;5776;51.814;4.510;2023-05-13T12:40:11;5.43;;;2.58;;
11439;SDS011;5776;51.814;4.510;2023-05-13T12:42:45;6.10;;;2.72;;
11439;SDS011;5776;51.814;4.510;2023-05-13T12:45:11;5.30;;;3.17;;
11439;SDS011;5776;51.814;4.510;2023-05-13T12:47:49;6.65;;;2.72;;
11439;SDS011;5776;51.814;4.510;2023-05-13T12:50:16;7.35;;;3.08;;
11439;SDS011;5776;51.814;4.510;2023-05-13T12:52:42;8.02;;;2.80;;
11439;SDS011;5776;51.814;4.510;2023-05-13T12:55:08;3.80;;;2.90;;
11439;SDS011;5776;51.814;4.510;2023-05-13T12:57:34;5.05;;;2.92;;
11439;SDS011;5776;51.814;4.510;2023-05-13T13:00:01;4.10;;;2.67;;
11439;SDS011;5776;51.814;4.510;2023-05-13T13:02:27;9.48;;;3.10;;
11439;SDS011;5776;51.814;4.510;2023-05-13T13:04:53;3.47;;;2.83;;
11439;SDS011;5776;51.814;4.510;2023-05-13T13:07:18;3.95;;;2.72;;
11439;SDS011;5776;51.814;4.510;2023-05-13T13:09:45;3.97;;;2.67;;
11439;SDS011;5776;51.814;4.510;2023-05-13T13:12:11;5.70;;;3.25;;
11439;SDS011;5776;51.814;4.510;2023-05-13T13:14:37;6.07;;;2.90;;
11439;SDS011;5776;51.814;4.510;2023-05-13T13:17:03;4.85;;;2.92;;
11439;SDS011;5776;51.814;4.510;2023-05-13T13:19:28;6.32;;;3.30;;
11439;SDS011;5776;51.814;4.510;2023-05-13T13:21:55;3.33;;;2.35;;
11439;SDS011;5776;51.814;4.510;2023-05-13T13:24:21;4.65;;;3.17;;
11439;SDS011;5776;51.814;4.510;2023-05-13T13:26:47;5.10;;;3.15;;
11439;SDS011;5776;51.814;4.510;2023-05-13T13:29:14;8.18;;;3.05;;
11439;SDS011;5776;51.814;4.510;2023-05-13T13:31:40;5.40;;;2.20;;
11439;SDS011;5776;51.814;4.510;2023-05-13T13:34:06;8.57;;;3.85;;
11439;SDS011;5776;51.814;4.510;2023-05-13T13:36:34;7.72;;;3.50;;
11439;SDS011;5776;51.814;4.510;2023-05-13T13:39:00;9.98;;;3.38;;
11439;SDS011;5776;51.814;4.510;2023-05-13T13:41:25;5.30;;;2.95;;
11439;SDS011;5776;51.814;4.510;2023-05-13T13:43:51;11.55;;;3.30;;
11439;SDS011;5776;51.814;4.510;2023-05-13T13:46:17;4.97;;;3.10;;
11439;SDS011;5776;51.814;4.510;2023-05-13T13:48:43;5.05;;;2.90;;
11439;SDS011;5776;51.814;4.510;2023-05-13T13:51:09;5.18;;;2.80;;
11439;SDS011;5776;51.814;4.510;2023-05-13T13:53:35;4.82;;;3.10;;
11439;SDS011;5776;51.814;4.510;2023-05-13T13:56:01;4.75;;;2.88;;
11439;SDS011;5776;51.814;4.510;2023-05-13T13:58:27;4.05;;;2.72;;
11439;SDS011;5776;51.814;4.510;2023-05-13T14:00:53;7.60;;;2.95;;
11439;SDS011;5776;51.814;4.510;2023-05-13T14:03:18;4.32;;;3.00;;
11439;SDS011;5776;51.814;4.510;2023-05-13T14:05:44;6.80;;;2.75;;
11439;SDS011;5776;51.814;4.510;2023-05-13T14:08:11;6.13;;;2.95;;
11439;SDS011;5776;51.814;4.510;2023-05-13T14:10:37;6.45;;;3.08;;
11439;SDS011;5776;51.814;4.510;2023-05-13T14:13:03;5.63;;;3.80;;
11439;SDS011;5776;51.814;4.510;2023-05-13T14:15:28;4.53;;;2.47;;
11439;SDS011;5776;51.814;4.510;2023-05-13T14:17:55;3.75;;;2.40;;
11439;SDS011;5776;51.814;4.510;2023-05-13T14:20:22;4.65;;;3.05;;
11439;SDS011;5776;51.814;4.510;2023-05-13T14:22:49;3.35;;;2.60;;
11439;SDS011;5776;51.814;4.510;2023-05-13T14:25:15;6.22;;;3.35;;
11439;SDS011;5776;51.814;4.510;2023-05-13T14:27:41;4.15;;;2.65;;
11439;SDS011;5776;51.814;4.510;2023-05-13T14:30:07;4.63;;;2.65;;
11439;SDS011;5776;51.814;4.510;2023-05-13T14:32:34;3.40;;;2.40;;
11439;SDS011;5776;51.814;4.510;2023-05-13T14:35:00;3.63;;;2.72;;
11439;SDS011;5776;51.814;4.510;2023-05-13T14:37:25;5.20;;;2.78;;
11439;SDS011;5776;51.814;4.510;2023-05-13T14:39:51;5.65;;;3.33;;
11439;SDS011;5776;51.814;4.510;2023-05-13T14:42:17;4.78;;;2.70;;
11439;SDS011;5776;51.814;4.510;2023-05-13T14:44:43;7.28;;;3.00;;
11439;SDS011;5776;51.814;4.510;2023-05-13T14:47:09;7.20;;;2.80;;
11439;SDS011;5776;51.814;4.510;2023-05-13T14:49:35;3.17;;;2.60;;
11439;SDS011;5776;51.814;4.510;2023-05-13T14:52:01;5.20;;;2.60;;
11439;SDS011;5776;51.814;4.510;2023-05-13T14:54:27;4.68;;;2.88;;
11439;SDS011;5776;51.814;4.510;2023-05-13T14:56:53;4.88;;;2.63;;
11439;SDS011;5776;51.814;4.510;2023-05-13T14:59:19;5.85;;;2.75;;
11439;SDS011;5776;51.814;4.510;2023-05-13T15:01:45;4.07;;;2.60;;
11439;SDS011;5776;51.814;4.510;2023-05-13T15:04:11;5.25;;;2.60;;
11439;SDS011;5776;51.814;4.510;2023-05-13T15:06:37;6.32;;;2.80;;
11439;SDS011;5776;51.814;4.510;2023-05-13T15:09:03;4.47;;;2.30;;
11439;SDS011;5776;51.814;4.510;2023-05-13T15:11:31;3.42;;;2.63;;
11439;SDS011;5776;51.814;4.510;2023-05-13T15:13:57;5.55;;;2.70;;
11439;SDS011;5776;51.814;4.510;2023-05-13T15:16:23;4.45;;;2.80;;
11439;SDS011;5776;51.814;4.510;2023-05-13T15:18:49;3.65;;;2.78;;
11439;SDS011;5776;51.814;4.510;2023-05-13T15:21:15;5.15;;;2.72;;
11439;SDS011;5776;51.814;4.510;2023-05-13T15:23:41;3.95;;;2.95;;
11439;SDS011;5776;51.814;4.510;2023-05-13T15:26:07;4.72;;;2.72;;
11439;SDS011;5776;51.814;4.510;2023-05-13T15:28:33;2.60;;;2.40;;
11439;SDS011;5776;51.814;4.510;2023-05-13T15:30:59;2.13;;;1.58;;
11439;SDS011;5776;51.814;4.510;2023-05-13T15:33:24;3.85;;;2.60;;